^^
Station Historical Data
 
Daily Summary for September 18, 2014 Units:  Metric    English   Both
« Previous Day
Next Day »
Daily Weekly Monthly Yearly Custom
  Current: High: Low: Average:
Temperature: 21.6 °C 21.6 °C 12.4 °C 15.7 °C
Dew Point: 18.2 °C 18.4 °C 11.6 °C 14.3 °C
Humidity: 81% 97% 79% 92%
Wind Speed: 0.0km/h 0.0km/h 0.0km/h 0km/h
Wind Gust: 0.0km/h 0.0km/h - -
WindCalm - - North
Pressure: 1011.1 hPa 1012.1 hPa 1010.7 hPa -
Precipitation: 0.0 mm      
Historical Graphs
 
 
Tabular Data for September 18, 2014
Time Temperature Dew Point Pressure Wind Wind Speed Wind Gust Humidity Rainfall Rate (Hourly) solar Conditions
00:00 14.9 °C 13.9 °C 1011.1 hPa Calm     94% 0.0 mm 0 W/m2
00:05 14.9 °C 13.9 °C 1011.1 hPa Calm     94% 0.0 mm 0 W/m2
00:15 14.8 °C 13.8 °C 1011.1 hPa Calm     94% 0.0 mm 0 W/m2
00:20 14.7 °C 13.7 °C 1011.1 hPa Calm     94% 0.0 mm 0 W/m2
00:30 14.7 °C 13.7 °C 1011.1 hPa Calm     94% 0.0 mm 0 W/m2
00:40 14.6 °C 13.7 °C 1011.1 hPa Calm     94% 0.0 mm 0 W/m2
00:45 14.6 °C 13.7 °C 1011.1 hPa Calm     94% 0.0 mm 0 W/m2
00:50 14.5 °C 13.6 °C 1011.1 hPa Calm     94% 0.0 mm 0 W/m2
00:55 14.5 °C 13.6 °C 1011.1 hPa Calm     94% 0.0 mm 0 W/m2
01:00 14.4 °C 13.4 °C 1011.1 hPa Calm     94% 0.0 mm 0 W/m2
01:05 14.4 °C 13.4 °C 1011.1 hPa Calm     94% 0.0 mm 0 W/m2
01:10 14.4 °C 13.4 °C 1011.1 hPa Calm     94% 0.0 mm 0 W/m2
01:15 14.4 °C 13.4 °C 1011.1 hPa Calm     94% 0.0 mm 0 W/m2
01:20 14.3 °C 13.3 °C 1011.1 hPa Calm     94% 0.0 mm 0 W/m2
01:25 14.3 °C 13.3 °C 1011.1 hPa Calm     94% 0.0 mm 0 W/m2
01:30 14.3 °C 13.3 °C 1011.1 hPa Calm     94% 0.0 mm 0 W/m2
01:35 14.3 °C 13.3 °C 1011.1 hPa Calm     94% 0.0 mm 0 W/m2
01:45 14.3 °C 13.3 °C 1011.1 hPa Calm     94% 0.0 mm 0 W/m2
01:50 14.2 °C 13.2 °C 1011.1 hPa Calm     94% 0.0 mm 0 W/m2
01:55 14.2 °C 13.2 °C 1011.1 hPa Calm     94% 0.0 mm 0 W/m2
02:05 14.1 °C 13.2 °C 1011.1 hPa Calm     94% 0.0 mm 0 W/m2
02:10 14.1 °C 13.2 °C 1011.1 hPa Calm     94% 0.0 mm 0 W/m2
02:15 14.1 °C 13.2 °C 1011.1 hPa Calm     94% 0.0 mm 0 W/m2
02:20 14.0 °C 13.1 °C 1011.1 hPa Calm     94% 0.0 mm 0 W/m2
02:25 14.0 °C 13.1 °C 1011.1 hPa Calm     94% 0.0 mm 0 W/m2
02:30 13.9 °C 12.9 °C 1011.1 hPa Calm     94% 0.0 mm 0 W/m2
02:40 13.9 °C 12.9 °C 1011.1 hPa Calm     94% 0.0 mm 0 W/m2
02:45 13.8 °C 12.8 °C 1011.1 hPa Calm     94% 0.0 mm 0 W/m2
02:50 13.8 °C 12.8 °C 1011.1 hPa Calm     94% 0.0 mm 0 W/m2
03:00 13.7 °C 12.8 °C 1011.1 hPa Calm     94% 0.0 mm 0 W/m2
03:05 13.7 °C 12.8 °C 1011.1 hPa Calm     94% 0.0 mm 0 W/m2
03:10 13.7 °C 12.8 °C 1011.1 hPa Calm     94% 0.0 mm 0 W/m2
03:20 13.6 °C 12.8 °C 1011.1 hPa Calm     95% 0.0 mm 0 W/m2
03:25 13.6 °C 12.8 °C 1011.1 hPa Calm     95% 0.0 mm 0 W/m2
03:30 13.6 °C 12.8 °C 1011.1 hPa Calm     95% 0.0 mm 0 W/m2
03:35 13.6 °C 12.8 °C 1011.1 hPa Calm     95% 0.0 mm 0 W/m2
03:40 13.6 °C 12.8 °C 1011.1 hPa Calm     95% 0.0 mm 0 W/m2
03:45 13.6 °C 12.8 °C 1011.1 hPa Calm     95% 0.0 mm 0 W/m2
03:50 13.6 °C 12.8 °C 1011.1 hPa Calm     95% 0.0 mm 0 W/m2
04:00 13.6 °C 12.8 °C 1011.1 hPa Calm     95% 0.0 mm 0 W/m2
04:05 13.6 °C 12.8 °C 1011.1 hPa Calm     95% 0.0 mm 0 W/m2
04:15 13.5 °C 12.7 °C 1011.1 hPa Calm     95% 0.0 mm 0 W/m2
04:20 13.4 °C 12.6 °C 1011.1 hPa Calm     95% 0.0 mm 0 W/m2
04:25 13.3 °C 12.5 °C 1011.1 hPa Calm     95% 0.0 mm 0 W/m2
04:30 13.3 °C 12.5 °C 1010.7 hPa Calm     95% 0.0 mm 0 W/m2
04:35 13.2 °C 12.4 °C 1010.7 hPa Calm     95% 0.0 mm 0 W/m2
04:40 13.1 °C 12.2 °C 1010.7 hPa Calm     94% 0.0 mm 0 W/m2
04:45 13.0 °C 12.1 °C 1010.7 hPa Calm     94% 0.0 mm 0 W/m2
04:50 12.9 °C 12.1 °C 1010.7 hPa Calm     95% 0.0 mm 0 W/m2
04:55 12.9 °C 12.1 °C 1011.1 hPa Calm     95% 0.0 mm 0 W/m2
05:05 12.8 °C 12.0 °C 1010.7 hPa Calm     95% 0.0 mm 0 W/m2
05:10 12.7 °C 11.9 °C 1010.7 hPa Calm     95% 0.0 mm 0 W/m2
05:15 12.7 °C 11.9 °C 1010.7 hPa Calm     95% 0.0 mm 0 W/m2
05:20 12.7 °C 11.9 °C 1010.7 hPa Calm     95% 0.0 mm 0 W/m2
05:25 12.6 °C 11.8 °C 1010.7 hPa Calm     95% 0.0 mm 0 W/m2
05:30 12.5 °C 11.7 °C 1010.7 hPa Calm     95% 0.0 mm 0 W/m2
05:35 12.5 °C 11.7 °C 1010.7 hPa Calm     95% 0.0 mm 0 W/m2
05:40 12.5 °C 11.7 °C 1010.7 hPa Calm     95% 0.0 mm 0 W/m2
05:50 12.4 °C 11.6 °C 1011.1 hPa Calm     95% 0.0 mm 0 W/m2
05:55 12.4 °C 11.6 °C 1011.1 hPa Calm     95% 0.0 mm 0 W/m2
06:00 12.4 °C 11.6 °C 1011.1 hPa Calm     95% 0.0 mm 0 W/m2
06:05 12.4 °C 11.6 °C 1011.1 hPa Calm     95% 0.0 mm 0 W/m2
06:10 12.4 °C 11.6 °C 1011.1 hPa Calm     95% 0.0 mm 0 W/m2
06:15 12.4 °C 11.6 °C 1011.4 hPa Calm     95% 0.0 mm 0 W/m2
06:20 12.5 °C 11.7 °C 1011.4 hPa Calm     95% 0.0 mm 0 W/m2
06:25 12.6 °C 12.0 °C 1011.1 hPa Calm     96% 0.0 mm 0 W/m2
06:30 12.6 °C 12.0 °C 1011.4 hPa Calm     96% 0.0 mm 0 W/m2
06:35 12.6 °C 12.0 °C 1011.1 hPa Calm     96% 0.0 mm 0 W/m2
06:40 12.7 °C 12.1 °C 1011.4 hPa Calm     96% 0.0 mm 0 W/m2
06:45 12.7 °C 12.1 °C 1011.4 hPa Calm     96% 0.0 mm 0 W/m2
06:55 12.8 °C 12.2 °C 1011.4 hPa Calm     96% 0.0 mm 0 W/m2
07:00 12.8 °C 12.2 °C 1011.4 hPa Calm     96% 0.0 mm 0 W/m2
07:05 12.9 °C 12.3 °C 1011.4 hPa Calm     96% 0.0 mm 0 W/m2
07:10 13.0 °C 12.4 °C 1011.4 hPa Calm     96% 0.0 mm 0 W/m2
07:25 13.3 °C 12.7 °C 1011.4 hPa Calm     96% 0.0 mm 9 W/m2
07:35 13.4 °C 12.8 °C 1011.4 hPa Calm     96% 0.0 mm 12 W/m2
07:40 13.4 °C 12.8 °C 1011.4 hPa Calm     96% 0.0 mm 12 W/m2
07:45 13.6 °C 13.0 °C 1011.4 hPa Calm     96% 0.0 mm 19 W/m2
07:50 13.7 °C 13.1 °C 1011.4 hPa Calm     96% 0.0 mm 21 W/m2
07:55 13.8 °C 13.2 °C 1011.4 hPa Calm     96% 0.0 mm 23 W/m2
08:00 13.9 °C 13.3 °C 1011.4 hPa Calm     96% 0.0 mm 28 W/m2
08:05 13.9 °C 13.3 °C 1011.4 hPa Calm     96% 0.0 mm 28 W/m2
08:10 14.1 °C 13.6 °C 1011.7 hPa Calm     97% 0.0 mm 33 W/m2
08:15 14.2 °C 13.7 °C 1011.4 hPa Calm     97% 0.0 mm 39 W/m2
08:20 14.3 °C 13.8 °C 1011.7 hPa Calm     97% 0.0 mm 40 W/m2
08:25 14.3 °C 13.7 °C 1011.7 hPa Calm     96% 0.0 mm 46 W/m2
08:30 14.3 °C 13.7 °C 1011.7 hPa Calm     96% 0.0 mm 54 W/m2
08:40 14.4 °C 13.8 °C 1011.7 hPa Calm     96% 0.0 mm 69 W/m2
08:45 14.5 °C 14.1 °C 1011.7 hPa Calm     97% 0.0 mm 70 W/m2
09:00 14.7 °C 14.2 °C 1011.7 hPa Calm     97% 0.0 mm 167 W/m2
09:05 14.7 °C 14.2 °C 1011.7 hPa Calm     97% 0.0 mm 134 W/m2
09:15 14.9 °C 14.4 °C 1011.7 hPa Calm     97% 0.0 mm 121 W/m2
09:25 15.1 °C 14.6 °C 1011.7 hPa Calm     97% 0.0 mm 144 W/m2
09:35 15.2 °C 14.7 °C 1011.7 hPa Calm     97% 0.0 mm 218 W/m2
09:40 15.4 °C 14.9 °C 1011.7 hPa Calm     97% 0.0 mm 257 W/m2
09:50 15.8 °C 15.2 °C 1011.7 hPa Calm     96% 0.0 mm 200 W/m2
09:55 15.9 °C 15.3 °C 1011.7 hPa Calm     96% 0.0 mm 188 W/m2
10:05 16.1 °C 15.4 °C 1012.1 hPa Calm     96% 0.0 mm 125 W/m2
10:10 16.1 °C 15.3 °C 1011.7 hPa Calm     95% 0.0 mm 156 W/m2
10:20 16.3 °C 15.5 °C 1012.1 hPa Calm     95% 0.0 mm 264 W/m2
10:25 16.3 °C 15.5 °C 1012.1 hPa Calm     95% 0.0 mm 264 W/m2
10:35 16.6 °C 15.4 °C 1011.7 hPa Calm     93% 0.0 mm 155 W/m2
10:40 16.6 °C 15.3 °C 1011.7 hPa Calm     92% 0.0 mm 165 W/m2
10:45 16.6 °C 15.3 °C 1011.7 hPa Calm     92% 0.0 mm 181 W/m2
10:50 16.7 °C 15.4 °C 1011.7 hPa Calm     92% 0.0 mm 186 W/m2
10:55 16.6 °C 15.3 °C 1011.7 hPa Calm     92% 0.0 mm 179 W/m2
11:00 16.7 °C 15.2 °C 1011.7 hPa Calm     91% 0.0 mm 162 W/m2
11:05 16.7 °C 15.2 °C 1011.7 hPa Calm     91% 0.0 mm 167 W/m2
11:15 16.9 °C 15.6 °C 1011.7 hPa Calm     92% 0.0 mm 204 W/m2
11:20 17.1 °C 15.8 °C 1011.7 hPa Calm     92% 0.0 mm 229 W/m2
11:25 17.2 °C 15.7 °C 1011.7 hPa Calm     91% 0.0 mm 116 W/m2
11:30 17.3 °C 15.8 °C 1011.4 hPa Calm     91% 0.0 mm 97 W/m2
11:35 17.3 °C 15.8 °C 1011.4 hPa Calm     91% 0.0 mm 97 W/m2
11:40 17.6 °C 15.9 °C 1011.4 hPa Calm     90% 0.0 mm 97 W/m2
11:45 17.7 °C 15.9 °C 1011.4 hPa Calm     89% 0.0 mm 100 W/m2
11:50 17.8 °C 15.9 °C 1011.4 hPa Calm     89% 0.0 mm 109 W/m2
11:55 18.0 °C 16.2 °C 1011.4 hPa Calm     89% 0.0 mm 186 W/m2
12:00 18.2 °C 16.3 °C 1011.4 hPa Calm     89% 0.0 mm 410 W/m2
12:05 18.7 °C 16.5 °C 1011.4 hPa Calm     87% 0.0 mm 149 W/m2
12:15 18.8 °C 16.2 °C 1011.4 hPa Calm     85% 0.0 mm 221 W/m2
12:20 19.1 °C 16.5 °C 1011.1 hPa Calm     85% 0.0 mm 230 W/m2
12:30 19.1 °C 16.5 °C 1011.4 hPa Calm     85% 0.0 mm 248 W/m2
12:35 19.1 °C 16.3 °C 1011.4 hPa Calm     84% 0.0 mm 241 W/m2
12:40 19.1 °C 16.5 °C 1011.4 hPa Calm     85% 0.0 mm 260 W/m2
12:45 19.2 °C 16.4 °C 1011.1 hPa Calm     84% 0.0 mm 283 W/m2
12:50 19.2 °C 16.4 °C 1011.1 hPa Calm     84% 0.0 mm 260 W/m2
12:55 19.2 °C 16.4 °C 1011.1 hPa Calm     84% 0.0 mm 295 W/m2
13:00 19.3 °C 16.7 °C 1011.1 hPa Calm     85% 0.0 mm 299 W/m2
13:05 19.4 °C 16.8 °C 1011.1 hPa Calm     85% 0.0 mm 308 W/m2
13:10 19.4 °C 16.4 °C 1011.1 hPa Calm     83% 0.0 mm 302 W/m2
13:15 19.4 °C 16.4 °C 1011.1 hPa Calm     83% 0.0 mm 302 W/m2
13:20 19.3 °C 16.5 °C 1011.1 hPa Calm     84% 0.0 mm 304 W/m2
13:30 19.4 °C 16.6 °C 1010.7 hPa Calm     84% 0.0 mm 294 W/m2
13:35 19.5 °C 16.7 °C 1011.1 hPa Calm     84% 0.0 mm 299 W/m2
13:40 19.7 °C 16.9 °C 1011.1 hPa Calm     84% 0.0 mm 311 W/m2
13:45 19.9 °C 16.9 °C 1011.1 hPa Calm     83% 0.0 mm 338 W/m2
13:50 19.9 °C 16.9 °C 1011.1 hPa Calm     83% 0.0 mm 429 W/m2
14:00 20.3 °C 17.7 °C 1011.1 hPa Calm     85% 0.0 mm 336 W/m2
14:05 20.6 °C 17.4 °C 1010.7 hPa Calm     82% 0.0 mm 304 W/m2
14:15 20.5 °C 17.3 °C 1011.1 hPa Calm     82% 0.0 mm 299 W/m2
14:20 20.7 °C 17.7 °C 1011.1 hPa Calm     83% 0.0 mm 281 W/m2
14:25 20.9 °C 17.9 °C 1011.1 hPa Calm     83% 0.0 mm 276 W/m2
14:30 21.1 °C 17.7 °C 1011.1 hPa Calm     81% 0.0 mm 288 W/m2
14:40 21.2 °C 17.4 °C 1011.1 hPa Calm     79% 0.0 mm 274 W/m2
14:45 21.4 °C 17.6 °C 1011.1 hPa Calm     79% 0.0 mm 267 W/m2
14:50 21.5 °C 17.7 °C 1011.1 hPa Calm     79% 0.0 mm 265 W/m2
14:55 21.6 °C 18.0 °C 1011.1 hPa Calm     80% 0.0 mm 273 W/m2
15:00 21.5 °C 18.1 °C 1011.1 hPa Calm     81% 0.0 mm 248 W/m2
15:05 21.4 °C 18.0 °C 1011.1 hPa Calm     81% 0.0 mm 258 W/m2
15:10 21.3 °C 17.9 °C 1011.1 hPa Calm     81% 0.0 mm 265 W/m2
15:15 21.4 °C 18.0 °C 1011.1 hPa Calm     81% 0.0 mm 255 W/m2
15:20 21.4 °C 17.8 °C 1011.1 hPa Calm     80% 0.0 mm 234 W/m2
15:25 21.4 °C 17.8 °C 1011.1 hPa Calm     80% 0.0 mm 214 W/m2
15:30 21.6 °C 18.4 °C 1011.1 hPa Calm     82% 0.0 mm 197 W/m2
15:35 21.6 °C 18.2 °C 1011.1 hPa Calm     81% 0.0 mm 183 W/m2
Tägerwilen, Thurgau, Switzerland
Compliments of Weather Underground